createdAt,value
2022-11-23T00:01:22.883Z,89.88
2022-11-23T00:03:50.803Z,90.25
2022-11-23T00:06:17.643Z,90.05
2022-11-23T00:08:45.614Z,90.17
2022-11-23T00:11:12.529Z,90.08
2022-11-23T00:13:40.817Z,90.32
2022-11-23T00:16:26.817Z,90.17
2022-11-23T00:18:54.119Z,90.22
2022-11-23T00:21:23.735Z,90.06
2022-11-23T00:23:50.493Z,89.98
2022-11-23T00:26:17.575Z,89.92
2022-11-23T00:28:44.396Z,90.33
2022-11-23T00:31:11.840Z,90.14
2022-11-23T00:33:38.573Z,90.34
2022-11-23T00:36:09.330Z,90.08
2022-11-23T00:38:36.461Z,90.02
2022-11-23T00:41:04.150Z,90.33
2022-11-23T00:43:31.294Z,90.33
2022-11-23T00:46:12.993Z,90.31
2022-11-23T00:48:41.799Z,90.34
2022-11-23T00:51:09.502Z,90.01
2022-11-23T00:53:36.484Z,90.06
2022-11-23T00:56:03.397Z,90.13
2022-11-23T00:58:30.174Z,90.12
2022-11-23T01:01:06.302Z,90.13
2022-11-23T01:03:34.997Z,90.10
2022-11-23T01:06:02.298Z,90.30
2022-11-23T01:08:29.011Z,90.36
2022-11-23T01:10:58.756Z,90.20
2022-11-23T01:13:25.922Z,90.01
2022-11-23T01:15:52.592Z,90.41
2022-11-23T01:21:33.712Z,90.18
2022-11-23T01:24:00.418Z,90.40
2022-11-23T01:26:26.987Z,90.20
2022-11-23T01:28:56.947Z,90.23
2022-11-23T01:31:26.781Z,90.19
2022-11-23T01:33:54.593Z,90.29
2022-11-23T01:36:23.088Z,90.12
2022-11-23T01:38:51.174Z,90.35
2022-11-23T01:41:18.809Z,90.28
2022-11-23T01:43:45.686Z,90.13
2022-11-23T01:46:12.386Z,90.47
2022-11-23T01:48:42.066Z,90.48
2022-11-23T01:51:15.943Z,90.42
2022-11-23T01:53:42.789Z,90.26
2022-11-23T01:56:11.125Z,90.53
2022-11-23T01:58:40.556Z,90.26
2022-11-23T02:01:07.312Z,90.37
2022-11-23T02:03:34.914Z,90.49
2022-11-23T02:06:05.757Z,90.38
2022-11-23T02:08:32.569Z,90.33
2022-11-23T02:11:01.670Z,90.47
2022-11-23T02:13:28.384Z,90.14
2022-11-23T02:15:55.362Z,90.25
2022-11-23T02:18:26.176Z,90.32
2022-11-23T02:20:52.890Z,90.45
2022-11-23T02:23:26.710Z,90.37
2022-11-23T02:25:58.681Z,90.38
2022-11-23T02:28:31.867Z,90.28
2022-11-23T02:30:59.219Z,90.44
2022-11-23T02:33:28.305Z,90.39
2022-11-23T02:35:59.076Z,90.01
2022-11-23T02:38:27.254Z,90.08
2022-11-23T02:40:56.738Z,90.37
2022-11-23T02:43:24.669Z,90.10
2022-11-23T02:45:58.127Z,90.36
2022-11-23T02:48:25.459Z,89.96
2022-11-23T02:50:52.166Z,90.12
2022-11-23T02:53:21.669Z,89.95
2022-11-23T02:55:48.342Z,90.22
2022-11-23T02:58:17.333Z,90.05
2022-11-23T03:00:44.027Z,90.15
2022-11-23T03:03:10.662Z,90.04
2022-11-23T03:05:38.733Z,89.95
2022-11-23T03:08:06.313Z,90.18
2022-11-23T03:10:33.104Z,90.04
2022-11-23T03:13:00.752Z,89.90
2022-11-23T03:15:29.354Z,89.92
2022-11-23T03:17:57.421Z,89.87
2022-11-23T03:20:24.677Z,90.08
2022-11-23T03:22:51.411Z,90.10
2022-11-23T03:25:19.608Z,90.10
2022-11-23T03:27:49.585Z,89.91
2022-11-23T03:30:16.275Z,90.02
2022-11-23T03:32:43.642Z,89.80
2022-11-23T03:35:10.312Z,89.86
2022-11-23T03:37:48.637Z,89.90
2022-11-23T03:40:15.274Z,89.90
2022-11-23T03:43:00.678Z,89.99
2022-11-23T03:45:27.336Z,90.00
2022-11-23T03:47:54.403Z,90.14
2022-11-23T03:50:21.171Z,89.93
2022-11-23T03:52:50.826Z,90.16
2022-11-23T03:55:17.620Z,90.06
2022-11-23T03:57:44.318Z,89.99
2022-11-23T04:00:11.401Z,90.03
2022-11-23T04:02:43.249Z,90.17
2022-11-23T04:05:29.828Z,90.01
2022-11-23T04:08:31.453Z,90.18
2022-11-23T04:10:59.499Z,90.11
2022-11-23T04:13:59.061Z,89.84
2022-11-23T04:16:25.956Z,90.26
2022-11-23T04:18:52.643Z,90.16
2022-11-23T04:21:19.279Z,90.16
2022-11-23T04:23:45.863Z,90.36
2022-11-23T04:26:14.665Z,90.17
2022-11-23T04:28:43.922Z,90.34
2022-11-23T04:31:11.719Z,90.38
2022-11-23T04:33:57.377Z,90.25
2022-11-23T04:36:25.574Z,90.26
2022-11-23T04:38:52.606Z,90.30
2022-11-23T04:41:23.835Z,90.37
2022-11-23T04:43:51.878Z,90.17
2022-11-23T04:46:18.684Z,90.30
2022-11-23T04:48:45.708Z,90.33
2022-11-23T04:51:16.359Z,90.03
2022-11-23T04:53:43.081Z,90.37
2022-11-23T04:56:09.892Z,90.27
2022-11-23T04:58:39.166Z,90.26
2022-11-23T05:01:06.351Z,90.25
2022-11-23T05:03:38.170Z,90.18
2022-11-23T05:06:07.680Z,90.04
2022-11-23T05:08:39.401Z,89.99
2022-11-23T05:11:20.822Z,89.99
2022-11-23T05:13:48.825Z,89.99
2022-11-23T05:16:15.549Z,89.94
2022-11-23T05:18:43.456Z,90.09
2022-11-23T05:21:10.831Z,90.13
2022-11-23T05:23:37.524Z,89.92
2022-11-23T05:26:04.725Z,90.12
2022-11-23T05:28:40.824Z,90.11
2022-11-23T05:31:09.039Z,89.93
2022-11-23T05:33:36.339Z,90.11
2022-11-23T05:36:04.600Z,90.08
2022-11-23T05:38:36.546Z,90.13
2022-11-23T05:41:08.293Z,90.11
2022-11-23T05:43:35.436Z,89.84
2022-11-23T05:46:02.637Z,89.94
2022-11-23T05:48:32.276Z,90.02
2022-11-23T05:51:04.886Z,89.97
2022-11-23T05:53:38.797Z,90.17
2022-11-23T05:56:38.792Z,89.98
2022-11-23T05:59:12.603Z,90.23
2022-11-23T06:01:42.233Z,90.24
2022-11-23T06:04:13.521Z,90.20
2022-11-23T06:06:44.428Z,90.15
2022-11-23T06:09:11.340Z,90.04
2022-11-23T06:11:40.104Z,89.81
2022-11-23T06:14:14.471Z,90.19
2022-11-23T06:16:43.472Z,89.81
2022-11-23T06:19:30.922Z,89.79
2022-11-23T06:21:58.512Z,89.95
2022-11-23T06:24:26.478Z,89.87
2022-11-23T06:27:18.381Z,90.05
2022-11-23T06:29:47.085Z,89.97
2022-11-23T06:32:13.974Z,89.99
2022-11-23T06:34:40.604Z,90.07
2022-11-23T06:37:07.290Z,89.81
2022-11-23T06:39:34.771Z,90.02
2022-11-23T06:42:23.848Z,89.86
2022-11-23T06:44:49.903Z,90.00
2022-11-23T06:47:19.043Z,89.61
2022-11-23T06:49:47.559Z,89.67
2022-11-23T06:52:22.786Z,89.71
2022-11-23T06:54:50.535Z,89.69
2022-11-23T06:57:17.119Z,89.56
2022-11-23T06:59:45.718Z,89.91
2022-11-23T07:02:14.762Z,89.90
2022-11-23T07:04:41.806Z,89.51
2022-11-23T07:07:15.276Z,89.46
2022-11-23T07:09:48.806Z,89.52
2022-11-23T07:12:22.830Z,89.78
2022-11-23T07:14:49.404Z,89.60
2022-11-23T07:17:17.571Z,89.42
2022-11-23T07:19:44.821Z,89.51
2022-11-23T07:22:11.555Z,89.54
2022-11-23T07:24:45.321Z,89.64
2022-11-23T07:27:13.255Z,89.69
2022-11-23T07:29:39.948Z,89.49
2022-11-23T07:32:08.560Z,89.63
2022-11-23T07:34:35.556Z,89.46
2022-11-23T07:37:03.332Z,89.41
2022-11-23T07:39:55.934Z,89.74
2022-11-23T07:42:41.550Z,89.53
2022-11-23T07:45:07.339Z,89.74
2022-11-23T07:47:36.171Z,89.62
2022-11-23T07:50:02.866Z,89.32
2022-11-23T07:52:29.505Z,89.32
2022-11-23T07:54:56.101Z,89.59
2022-11-23T07:57:22.669Z,89.59
2022-11-23T07:59:49.232Z,89.46
2022-11-23T08:02:15.940Z,89.42
2022-11-23T08:04:42.593Z,89.50
2022-11-23T08:07:09.296Z,89.56
2022-11-23T08:09:35.980Z,89.30
2022-11-23T08:12:02.596Z,89.49
2022-11-23T08:14:29.209Z,89.51
2022-11-23T08:16:55.808Z,89.57
2022-11-23T08:19:22.424Z,89.42
2022-11-23T08:21:49.008Z,89.57
2022-11-23T08:24:15.628Z,89.22
2022-11-23T08:26:42.233Z,89.59
2022-11-23T08:29:08.812Z,89.54
2022-11-23T08:31:35.362Z,89.32
2022-11-23T08:34:03.733Z,89.13
2022-11-23T08:36:30.524Z,89.44
2022-11-23T08:38:57.124Z,89.23
2022-11-23T08:41:23.881Z,89.02
2022-11-23T08:43:51.014Z,88.93
2022-11-23T08:46:17.582Z,89.28
2022-11-23T08:48:44.216Z,89.20
2022-11-23T08:51:10.853Z,88.80
2022-11-23T08:53:37.582Z,88.90
2022-11-23T08:56:05.236Z,88.70
2022-11-23T08:58:31.819Z,88.84
2022-11-23T09:00:58.436Z,88.82
2022-11-23T09:03:25.083Z,88.73
2022-11-23T09:05:51.744Z,88.50
2022-11-23T09:08:18.396Z,88.46
2022-11-23T09:10:45.014Z,88.29
2022-11-23T09:13:11.663Z,88.57
2022-11-23T09:15:38.283Z,88.37
2022-11-23T09:18:04.941Z,88.01
2022-11-23T09:20:31.587Z,88.05
2022-11-23T09:22:58.219Z,87.83
2022-11-23T09:25:24.814Z,87.99
2022-11-23T09:27:56.727Z,87.69
2022-11-23T09:30:23.313Z,87.87
2022-11-23T09:32:49.946Z,87.66
2022-11-23T09:35:16.598Z,87.65
2022-11-23T09:37:43.243Z,87.60
2022-11-23T09:40:11.240Z,87.50
2022-11-23T09:42:41.421Z,87.30
2022-11-23T09:45:14.368Z,87.47
2022-11-23T09:47:54.839Z,87.11
2022-11-23T09:50:28.777Z,86.85
2022-11-23T09:52:55.360Z,86.94
2022-11-23T09:55:25.419Z,86.84
2022-11-23T09:57:52.278Z,86.73
2022-11-23T10:00:20.001Z,86.35
2022-11-23T10:02:46.713Z,86.50
2022-11-23T10:05:18.478Z,86.50
2022-11-23T10:08:03.992Z,86.06
2022-11-23T10:10:30.611Z,86.24
2022-11-23T10:13:16.008Z,86.16
2022-11-23T10:15:49.724Z,85.97
2022-11-23T10:18:19.339Z,86.04
2022-11-23T10:20:55.587Z,86.11
2022-11-23T10:23:48.720Z,86.02
2022-11-23T10:26:19.756Z,86.27
2022-11-23T10:28:47.000Z,86.31
2022-11-23T10:31:20.691Z,86.06
2022-11-23T10:33:55.071Z,86.41
2022-11-23T10:36:21.974Z,86.02
2022-11-23T10:38:50.103Z,85.98
2022-11-23T10:41:17.325Z,86.24
2022-11-23T10:43:46.976Z,85.81
2022-11-23T10:46:31.181Z,85.96
2022-11-23T10:49:15.737Z,85.76
2022-11-23T10:51:48.823Z,85.90
2022-11-23T10:54:23.180Z,85.83
2022-11-23T10:56:50.194Z,85.38
2022-11-23T10:59:25.980Z,85.24
2022-11-23T11:01:59.725Z,85.09
2022-11-23T11:04:27.639Z,84.91
2022-11-23T11:07:02.957Z,84.79
2022-11-23T11:09:29.742Z,84.40
2022-11-23T11:11:56.596Z,84.38
2022-11-23T11:14:27.928Z,84.04
2022-11-23T11:16:55.537Z,84.03
2022-11-23T11:19:25.196Z,83.80
2022-11-23T11:21:51.833Z,83.72
2022-11-23T11:24:19.974Z,83.21
2022-11-23T11:26:51.047Z,82.90
2022-11-23T11:29:32.674Z,82.86
2022-11-23T11:32:26.512Z,82.34
2022-11-23T11:35:16.087Z,82.31
2022-11-23T11:37:46.755Z,81.97
2022-11-23T11:40:17.773Z,81.56
2022-11-23T11:42:56.845Z,81.53
2022-11-23T11:45:30.858Z,81.22
2022-11-23T11:48:03.428Z,81.12
2022-11-23T11:50:32.072Z,80.52
2022-11-23T11:53:03.817Z,80.23
2022-11-23T11:55:33.637Z,79.82
2022-11-23T11:58:04.452Z,79.74
2022-11-23T12:00:31.025Z,79.37
2022-11-23T12:02:57.701Z,79.24
2022-11-23T12:05:25.478Z,79.00
2022-11-23T12:08:01.097Z,78.72
2022-11-23T12:10:38.704Z,78.36
2022-11-23T12:13:05.301Z,78.28
2022-11-23T12:15:49.604Z,78.23
2022-11-23T12:18:29.020Z,78.42
2022-11-23T12:20:58.084Z,78.37
2022-11-23T12:23:28.015Z,78.84
2022-11-23T12:26:00.713Z,78.61
2022-11-23T12:28:27.357Z,78.75
2022-11-23T12:30:57.084Z,78.87
2022-11-23T12:33:31.304Z,78.35
2022-11-23T12:36:19.138Z,78.29
2022-11-23T12:38:55.203Z,78.87
2022-11-23T12:41:29.748Z,78.94
2022-11-23T12:43:56.367Z,78.79
2022-11-23T12:46:29.780Z,79.05
2022-11-23T12:49:11.675Z,79.07
2022-11-23T12:51:57.131Z,78.79
2022-11-23T12:54:40.077Z,78.86
2022-11-23T12:57:18.004Z,78.58
2022-11-23T12:59:48.965Z,78.80
2022-11-23T13:02:22.899Z,78.77
2022-11-23T13:05:12.895Z,78.41
2022-11-23T13:07:49.570Z,78.63
2022-11-23T13:10:20.006Z,78.57
2022-11-23T13:12:50.857Z,78.70
2022-11-23T13:15:23.676Z,78.44
2022-11-23T13:17:53.057Z,78.58
2022-11-23T13:20:26.103Z,78.41
2022-11-23T13:22:52.886Z,78.87
2022-11-23T13:25:21.084Z,78.89
2022-11-23T13:27:50.670Z,78.75
2022-11-23T13:31:16.115Z,78.69
2022-11-23T13:33:37.890Z,78.86
2022-11-23T13:36:10.419Z,78.86
2022-11-23T13:38:41.279Z,78.84
2022-11-23T13:41:46.696Z,78.88
2022-11-23T13:44:23.752Z,78.71
2022-11-23T13:46:59.577Z,78.63
2022-11-23T13:49:38.101Z,78.42
2022-11-23T13:52:05.781Z,78.03
2022-11-23T13:54:32.496Z,78.21
2022-11-23T13:57:00.236Z,78.06
2022-11-23T13:59:34.961Z,77.96
2022-11-23T14:02:01.680Z,77.89
2022-11-23T14:04:29.186Z,77.84
2022-11-23T14:07:14.727Z,78.08
2022-11-23T14:09:50.543Z,77.75
2022-11-23T14:12:18.982Z,78.01
2022-11-23T14:15:04.257Z,77.94
2022-11-23T14:17:49.381Z,78.46
2022-11-23T14:20:45.407Z,78.54
2022-11-23T14:23:21.168Z,78.52
2022-11-23T14:26:06.777Z,79.00
2022-11-23T14:28:42.579Z,79.26
2022-11-23T14:31:18.158Z,79.51
2022-11-23T14:34:05.439Z,79.95
2022-11-23T14:36:59.251Z,79.79
2022-11-23T14:39:50.135Z,80.42
2022-11-23T14:42:31.723Z,80.58
2022-11-23T14:45:01.834Z,80.78
2022-11-23T14:47:30.085Z,80.94
2022-11-23T14:52:37.521Z,81.51
2022-11-23T14:55:04.742Z,81.65
2022-11-23T14:57:38.674Z,81.59
2022-11-23T15:00:25.057Z,81.95
2022-11-23T15:02:55.433Z,81.95
2022-11-23T15:05:24.149Z,81.84
2022-11-23T15:07:52.222Z,82.09
2022-11-23T15:10:20.006Z,82.34
2022-11-23T15:12:47.583Z,82.52
2022-11-23T15:15:27.393Z,82.52
2022-11-23T15:17:58.109Z,82.56
2022-11-23T15:20:28.710Z,82.72
2022-11-23T15:22:55.398Z,82.84
2022-11-23T15:25:22.009Z,83.26
2022-11-23T15:27:51.816Z,83.18
2022-11-23T15:30:23.034Z,83.19
2022-11-23T15:32:57.496Z,83.33
2022-11-23T15:35:27.441Z,83.66
2022-11-23T15:37:54.067Z,83.68
2022-11-23T15:40:20.869Z,83.42
2022-11-23T15:42:48.429Z,84.05
2022-11-23T15:45:34.068Z,83.86
2022-11-23T15:48:01.601Z,83.96
2022-11-23T15:50:33.777Z,84.10
2022-11-23T15:53:01.006Z,84.38
2022-11-23T15:55:31.862Z,84.24
2022-11-23T15:57:58.519Z,84.24
2022-11-23T16:00:28.093Z,84.23
2022-11-23T16:02:58.915Z,84.50
2022-11-23T16:05:26.752Z,84.57
2022-11-23T16:07:58.532Z,84.66
2022-11-23T16:10:28.374Z,84.57
2022-11-23T16:12:56.226Z,84.49
2022-11-23T16:15:37.926Z,84.34
2022-11-23T16:18:05.401Z,84.79
2022-11-23T16:20:32.251Z,84.85
2022-11-23T16:23:00.236Z,84.90
2022-11-23T16:25:36.375Z,84.72
2022-11-23T16:28:17.450Z,84.97
2022-11-23T16:30:44.977Z,84.64
2022-11-23T16:33:15.783Z,84.83
2022-11-23T16:35:42.591Z,84.86
2022-11-23T16:38:09.329Z,84.97
2022-11-23T16:40:35.974Z,85.30
2022-11-23T16:43:05.841Z,85.50
2022-11-23T16:46:20.790Z,85.53
2022-11-23T16:49:12.377Z,85.51
2022-11-23T16:51:46.077Z,85.58
2022-11-23T16:54:34.136Z,85.48
2022-11-23T16:57:01.457Z,85.70
2022-11-23T16:59:28.303Z,85.56
2022-11-23T17:01:57.940Z,85.68
2022-11-23T17:04:34.444Z,85.88
2022-11-23T17:07:01.338Z,85.83
2022-11-23T17:09:30.426Z,85.68
2022-11-23T17:11:57.167Z,85.87
2022-11-23T17:14:29.584Z,86.01
2022-11-23T17:16:56.618Z,86.06
2022-11-23T17:19:23.354Z,85.93
2022-11-23T17:21:50.249Z,85.79
2022-11-23T17:24:16.928Z,86.13
2022-11-23T17:26:47.201Z,86.19
2022-11-23T17:29:20.291Z,86.24
2022-11-23T17:31:47.246Z,86.50
2022-11-23T17:34:14.118Z,86.36
2022-11-23T17:36:41.430Z,86.32
2022-11-23T17:39:08.140Z,86.56
2022-11-23T17:41:34.810Z,86.56
2022-11-23T17:44:01.408Z,86.32
2022-11-23T17:46:28.176Z,86.70
2022-11-23T17:48:55.816Z,86.48
2022-11-23T17:51:22.452Z,86.72
2022-11-23T17:53:49.162Z,86.69
2022-11-23T17:56:21.078Z,86.81
2022-11-23T17:58:58.119Z,86.91
2022-11-23T18:01:37.217Z,86.86
2022-11-23T18:04:05.050Z,86.74
2022-11-23T18:06:31.866Z,87.20
2022-11-23T18:08:58.513Z,87.20
2022-11-23T18:11:25.167Z,86.92
2022-11-23T18:13:51.867Z,87.07
2022-11-23T18:16:18.814Z,86.92
2022-11-23T18:18:45.644Z,87.28
2022-11-23T18:21:14.553Z,87.33
2022-11-23T18:23:42.337Z,87.49
2022-11-23T18:26:16.747Z,87.59
2022-11-23T18:28:43.413Z,87.80
2022-11-23T18:31:10.141Z,87.91
2022-11-23T18:33:37.259Z,87.88
2022-11-23T18:36:06.392Z,87.86
2022-11-23T18:38:33.320Z,88.08
2022-11-23T18:41:00.011Z,87.84
2022-11-23T18:46:19.499Z,88.03
2022-11-23T18:48:47.245Z,87.67
2022-11-23T18:51:14.337Z,87.77
2022-11-23T18:53:41.289Z,87.85
2022-11-23T18:56:08.413Z,87.58
2022-11-23T18:58:36.005Z,87.68
2022-11-23T19:01:10.713Z,87.57
2022-11-23T19:03:46.952Z,87.84
2022-11-23T19:06:17.407Z,87.68
2022-11-23T19:08:51.552Z,87.66
2022-11-23T19:11:19.926Z,87.54
2022-11-23T19:13:50.722Z,87.97
2022-11-23T19:19:15.923Z,87.86
2022-11-23T19:21:43.371Z,87.93
2022-11-23T19:24:35.162Z,87.67
2022-11-23T19:27:14.381Z,87.66
2022-11-23T19:29:53.865Z,87.79
2022-11-23T19:32:26.390Z,88.06
2022-11-23T19:34:55.314Z,87.82
2022-11-23T19:37:22.140Z,87.80
2022-11-23T19:39:48.999Z,87.80
2022-11-23T19:42:15.737Z,87.96
2022-11-23T19:44:43.813Z,88.04
2022-11-23T19:47:16.353Z,87.83
2022-11-23T19:50:04.093Z,87.73
2022-11-23T19:53:09.906Z,87.90
2022-11-23T19:55:51.300Z,87.82
2022-11-23T19:58:57.013Z,87.95
2022-11-23T20:02:00.821Z,87.86
2022-11-23T20:07:48.853Z,87.89
2022-11-23T20:10:50.292Z,87.99
2022-11-23T20:13:19.792Z,87.95
2022-11-23T20:15:58.100Z,88.33
2022-11-23T20:18:31.113Z,88.23
2022-11-23T20:21:03.645Z,88.36
2022-11-23T20:23:31.314Z,88.40
2022-11-23T20:26:02.428Z,88.42
2022-11-23T20:28:30.193Z,88.13
2022-11-23T20:31:07.043Z,88.25
2022-11-23T20:33:36.829Z,88.10
2022-11-23T20:36:14.757Z,88.36
2022-11-23T20:38:46.542Z,88.49
2022-11-23T20:41:16.473Z,88.26
2022-11-23T20:43:43.788Z,88.47
2022-11-23T20:46:10.835Z,88.54
2022-11-23T20:48:46.461Z,88.15
2022-11-23T20:51:16.236Z,88.16
2022-11-23T20:53:43.193Z,88.37
2022-11-23T20:56:10.936Z,88.23
2022-11-23T20:58:40.804Z,88.38
2022-11-23T21:01:13.910Z,88.48
2022-11-23T21:03:43.955Z,88.08
2022-11-23T21:06:14.659Z,88.39
2022-11-23T21:08:47.393Z,88.11
2022-11-23T21:11:35.761Z,88.31
2022-11-23T21:14:06.461Z,88.20
2022-11-23T21:16:45.322Z,88.40
2022-11-23T21:19:15.335Z,88.15
2022-11-23T21:21:43.054Z,87.99
2022-11-23T21:24:13.906Z,88.36
2022-11-23T21:26:46.144Z,88.26
2022-11-23T21:29:13.089Z,88.33
2022-11-23T21:31:41.109Z,88.01
2022-11-23T21:34:15.102Z,88.05
2022-11-23T21:36:44.738Z,88.03
2022-11-23T21:39:14.152Z,88.04
2022-11-23T21:41:49.401Z,88.08
2022-11-23T21:44:22.307Z,88.20
2022-11-23T21:46:52.007Z,88.00
2022-11-23T21:49:18.921Z,88.19
2022-11-23T21:51:48.791Z,88.27
2022-11-23T21:54:32.564Z,87.89
2022-11-23T21:57:14.762Z,88.01
2022-11-23T21:59:47.985Z,88.08
2022-11-23T22:02:19.304Z,87.90
2022-11-23T22:04:48.052Z,87.86
2022-11-23T22:07:15.055Z,87.93
2022-11-23T22:09:41.922Z,88.14
2022-11-23T22:12:13.825Z,87.87
2022-11-23T22:14:48.609Z,87.90
2022-11-23T22:17:23.453Z,87.97
2022-11-23T22:19:56.580Z,87.85
2022-11-23T22:22:25.821Z,87.76
2022-11-23T22:24:52.932Z,87.79
2022-11-23T22:27:20.113Z,87.84
2022-11-23T22:29:50.123Z,87.97
2022-11-23T22:32:18.032Z,87.65
2022-11-23T22:34:48.963Z,87.64
2022-11-23T22:37:15.723Z,87.97
2022-11-23T22:39:45.555Z,87.66
2022-11-23T22:42:12.591Z,87.53
2022-11-23T22:44:39.605Z,87.63
2022-11-23T22:47:08.637Z,87.82
2022-11-23T22:49:35.332Z,87.73
2022-11-23T22:52:15.713Z,87.75
2022-11-23T22:54:42.681Z,87.64
2022-11-23T22:57:09.522Z,88.04
2022-11-23T22:59:37.987Z,87.86
2022-11-23T23:02:04.724Z,87.92
2022-11-23T23:04:42.838Z,88.01
2022-11-23T23:07:09.676Z,88.07
2022-11-23T23:09:36.372Z,87.98
2022-11-23T23:12:02.994Z,87.80
2022-11-23T23:14:29.872Z,87.92
2022-11-23T23:17:00.864Z,88.07
2022-11-23T23:19:43.673Z,87.88
2022-11-23T23:22:22.850Z,88.12
2022-11-23T23:28:14.645Z,88.18
2022-11-23T23:31:28.719Z,88.30
2022-11-23T23:34:24.213Z,88.35
2022-11-23T23:37:26.290Z,88.34
2022-11-23T23:40:07.074Z,88.17
2022-11-23T23:43:04.166Z,88.22
2022-11-23T23:45:40.980Z,88.21
2022-11-23T23:54:33.112Z,88.27
